Time;durP1;ratioP1;P1;durP2;ratioP2;P2;SDS_P1;SDS_P2;PMS_P1;PMS_P2;Temp;Humidity;BMP_temperature;BMP_pressure;BME280_temperature;BME280_humidity;BME280_pressure;Samples;Min_cycle;Max_cycle;Signal;HPM_P1;HPM_P2
2022/04/28 00:00:19;;;;;;;7.50;6.90;;;;;;;8.24;67.66;101607.69;5097888;28;20213;-80
2022/04/28 00:02:46;;;;;;;7.90;7.23;;;;;;;8.12;67.79;101592.84;5100559;28;20214;-79
2022/04/28 00:05:13;;;;;;;8.03;7.23;;;;;;;8.06;69.15;101576.31;5100084;28;20203;-79
2022/04/28 00:07:41;;;;;;;7.83;7.13;;;;;;;7.86;69.07;101561.38;5100076;28;20268;-80
2022/04/28 00:10:09;;;;;;;9.77;8.27;;;;;;;7.58;70.03;101546.38;5099118;28;20229;-80
2022/04/28 00:12:36;;;;;;;10.23;7.97;;;;;;;7.49;70.25;101519.44;5099937;28;20234;-80
2022/04/28 00:15:03;;;;;;;8.57;7.87;;;;;;;7.60;70.47;101503.94;5100578;28;20206;-80
2022/04/28 00:17:30;;;;;;;8.47;7.70;;;;;;;7.61;71.61;101476.22;5099619;28;20222;-80
2022/04/28 00:19:56;;;;;;;9.70;8.03;;;;;;;7.66;71.64;101467.63;5098860;28;20234;-79
2022/04/28 00:22:24;;;;;;;8.63;7.93;;;;;;;7.72;71.65;101479.81;5099222;28;20670;-80
2022/04/28 00:24:52;;;;;;;8.40;7.57;;;;;;;7.66;70.67;101500.56;5099467;28;20265;-79
2022/04/28 00:27:18;;;;;;;8.53;7.67;;;;;;;7.46;69.93;101516.78;5099940;28;20230;-80
2022/04/28 00:29:45;;;;;;;10.17;7.57;;;;;;;7.33;70.49;101510.59;5099046;28;20214;-80
2022/04/28 00:32:11;;;;;;;8.10;7.30;;;;;;;7.16;71.20;101517.31;5099192;28;20745;-80
2022/04/28 00:34:38;;;;;;;7.83;7.13;;;;;;;7.11;71.37;101499.06;5099851;28;20244;-79
2022/04/28 00:37:09;;;;;;;8.20;7.40;;;;;;;7.04;72.24;101499.00;5099047;28;20646;-80
2022/04/28 00:39:35;;;;;;;7.90;7.10;;;;;;;7.01;71.87;101472.97;5098764;28;20212;-79
2022/04/28 00:42:08;;;;;;;7.93;7.13;;;;;;;7.07;72.62;101452.28;5099397;28;20208;-80
2022/04/28 00:44:34;;;;;;;7.77;7.07;;;;;;;7.03;73.23;101440.97;5099394;28;20204;-80
2022/04/28 00:47:00;;;;;;;7.87;7.07;;;;;;;6.99;73.37;101436.59;5099174;28;20616;-80
2022/04/28 00:52:10;;;;;;;8.07;7.33;;;;;;;6.70;74.01;101444.91;5093330;28;20866;-79
2022/04/28 00:54:37;;;;;;;8.40;7.60;;;;;;;6.65;73.59;101443.97;5098988;28;20203;-79
2022/04/28 00:57:05;;;;;;;10.00;7.37;;;;;;;6.71;73.82;101430.22;5099029;28;20230;-79
2022/04/28 00:59:32;;;;;;;8.27;7.13;;;;;;;6.71;74.66;101415.50;5098017;28;20228;-79
2022/04/28 01:01:58;;;;;;;8.83;8.03;;;;;;;6.69;74.82;101414.63;5096821;28;20282;-79
2022/04/28 01:04:24;;;;;;;8.77;7.97;;;;;;;6.64;74.25;101416.31;5099218;28;20207;-80
2022/04/28 01:06:52;;;;;;;8.57;7.53;;;;;;;6.57;73.70;101430.03;5099191;28;20719;-80
2022/04/28 01:09:19;;;;;;;8.80;7.90;;;;;;;6.42;74.90;101428.13;5098020;28;20213;-79
2022/04/28 01:11:45;;;;;;;10.10;9.17;;;;;;;6.35;75.16;101421.94;5098938;28;20207;-79
2022/04/28 01:14:13;;;;;;;12.03;8.63;;;;;;;6.33;75.20;101408.09;5099410;28;20257;-80
2022/04/28 01:16:40;;;;;;;9.53;8.63;;;;;;;6.25;75.85;101403.66;5096147;28;20226;-78
2022/04/28 01:19:07;;;;;;;10.73;9.03;;;;;;;6.20;76.12;101400.13;5095955;28;20846;-79
2022/04/28 01:21:34;;;;;;;10.07;9.00;;;;;;;6.22;76.62;101385.44;5097448;28;20613;-78
2022/04/28 01:24:02;;;;;;;11.27;9.07;;;;;;;6.25;76.86;101382.91;5097994;28;20209;-80
2022/04/28 01:26:29;;;;;;;11.70;8.93;;;;;;;6.22;77.10;101370.75;5096220;28;20287;-80
2022/04/28 01:28:56;;;;;;;9.67;8.77;;;;;;;6.12;77.66;101364.56;5093241;28;20207;-79
2022/04/28 01:31:23;;;;;;;11.00;8.47;;;;;;;6.05;77.74;101352.41;5091031;28;20257;-80
2022/04/28 01:33:49;;;;;;;10.83;9.63;;;;;;;5.99;78.17;101338.50;5093732;28;20256;-79
2022/04/28 01:36:15;;;;;;;11.13;10.03;;;;;;;5.95;78.68;101337.56;5093450;28;20598;-80
2022/04/28 01:38:43;;;;;;;10.83;9.77;;;;;;;5.88;78.85;101338.28;5093411;28;20235;-79
2022/04/28 01:41:10;;;;;;;13.57;9.00;;;;;;;5.85;78.21;101340.84;5094151;28;20204;-79
2022/04/28 01:43:37;;;;;;;11.67;9.50;;;;;;;5.71;79.64;101332.88;5093767;28;20212;-78
2022/04/28 01:46:03;;;;;;;12.67;9.83;;;;;;;5.66;79.78;101326.72;5093103;28;20203;-79
2022/04/28 01:48:29;;;;;;;9.90;8.93;;;;;;;5.68;80.06;101314.66;5093327;28;20271;-79
2022/04/28 01:56:28;;;;;;;10.27;8.73;;;;;;;5.55;80.04;101316.22;5093139;28;20223;-79
2022/04/28 01:58:54;;;;;;;10.00;9.10;;;;;;;5.56;80.01;101321.38;5092726;28;20754;-78
2022/04/28 02:01:20;;;;;;;9.53;8.67;;;;;;;5.49;80.47;101321.25;5093204;28;20212;-79
2022/04/28 02:03:47;;;;;;;9.73;8.83;;;;;;;5.49;80.77;101318.69;5093613;28;20292;-80
2022/04/28 02:06:13;;;;;;;9.70;8.80;;;;;;;5.49;80.89;101305.72;5092893;28;20253;-79
2022/04/28 02:08:40;;;;;;;15.10;9.03;;;;;;;5.46;81.46;101309.16;5092854;28;20269;-77
2022/04/28 02:11:08;;;;;;;17.80;8.57;;;;;;;5.52;80.93;101304.06;5093068;28;20248;-79
2022/04/28 02:13:35;;;;;;;14.13;9.33;;;;;;;5.44;80.90;101320.34;5092863;28;20207;-79
2022/04/28 02:16:01;;;;;;;9.93;8.93;;;;;;;5.42;81.24;101322.91;5092468;28;20245;-79
2022/04/28 02:18:28;;;;;;;10.23;9.20;;;;;;;5.32;81.76;101313.25;5099852;22;20226;-83
2022/04/28 02:20:54;;;;;;;8.93;8.13;;;;;;;5.35;82.25;101305.50;5068621;28;20235;-84
2022/04/28 02:23:20;;;;;;;15.27;9.60;;;;;;;5.28;81.94;101312.31;5068419;28;20205;-85
2022/04/28 02:25:47;;;;;;;10.20;8.60;;;;;;;5.18;82.94;101295.75;5068687;28;20611;-85
2022/04/28 02:28:15;;;;;;;10.70;8.17;;;;;;;5.17;83.44;101269.84;5077117;28;20229;-86
2022/04/28 02:30:41;;;;;;;9.43;8.60;;;;;;;5.21;83.72;101274.22;5076466;28;20212;-86
2022/04/28 02:33:10;;;;;;;9.93;8.37;;;;;;;5.44;82.91;101281.50;5077915;28;20206;-82
2022/04/28 02:35:36;;;;;;;9.10;8.30;;;;;;;5.60;82.31;101305.91;5077568;28;20232;-85
2022/04/28 02:38:03;;;;;;;8.47;7.77;;;;;;;5.76;81.39;101326.00;5076791;28;20255;-85
2022/04/28 02:40:29;;;;;;;8.63;7.77;;;;;;;5.84;80.82;101352.03;5076720;28;20254;-85
2022/04/28 02:42:56;;;;;;;9.30;8.27;;;;;;;5.97;80.25;101377.34;5076676;28;20210;-85
2022/04/28 02:45:23;;;;;;;7.87;7.17;;;;;;;5.99;79.82;101395.50;5077597;28;20263;-85
2022/04/28 02:47:50;;;;;;;8.10;7.40;;;;;;;6.05;79.53;101411.16;5076835;28;20225;-85
2022/04/28 02:50:16;;;;;;;9.17;8.03;;;;;;;6.11;79.19;101426.78;5075939;28;20667;-85
2022/04/28 02:52:42;;;;;;;10.30;7.40;;;;;;;6.19;78.85;101443.31;5076718;28;20204;-85
2022/04/28 02:55:09;;;;;;;7.60;6.97;;;;;;;6.22;78.42;101455.44;5076234;28;20268;-82
2022/04/28 02:57:36;;;;;;;10.67;7.10;;;;;;;6.26;78.49;101463.28;5075205;28;20234;-81
2022/04/28 03:00:04;;;;;;;8.07;7.37;;;;;;;6.32;77.56;101478.97;5075513;28;20205;-83
2022/04/28 03:02:32;;;;;;;8.83;7.93;;;;;;;6.27;77.05;101485.78;5074264;28;20618;-83
2022/04/28 03:05:01;;;;;;;7.27;6.67;;;;;;;6.26;77.45;101477.97;5066369;28;20201;-82
2022/04/28 03:12:58;;;;;;;11.23;8.33;;;;;;;6.23;77.16;101499.56;5075705;28;20324;-82
2022/04/28 03:15:25;;;;;;;10.63;7.60;;;;;;;6.28;77.39;101504.81;5074800;28;20201;-80
2022/04/28 03:17:52;;;;;;;7.33;6.73;;;;;;;6.32;77.16;101506.59;5074953;28;20591;-85
2022/04/28 03:20:19;;;;;;;8.97;7.67;;;;;;;6.32;76.77;101520.44;5074790;28;20213;-85
2022/04/28 03:22:45;;;;;;;9.47;7.00;;;;;;;6.28;76.95;101521.25;5071513;28;20642;-83
2022/04/28 03:25:12;;;;;;;9.53;7.17;;;;;;;6.29;77.18;101515.22;5070697;28;20236;-84
2022/04/28 03:27:38;;;;;;;11.60;7.73;;;;;;;6.19;76.96;101523.69;5075364;28;20813;-85
2022/04/28 03:30:07;;;;;;;9.23;7.33;;;;;;;6.23;76.85;101516.84;5074940;28;20204;-84
2022/04/28 03:32:34;;;;;;;9.90;7.30;;;;;;;6.20;77.13;101512.44;5072309;28;20217;-84
2022/04/28 03:35:02;;;;;;;9.03;7.63;;;;;;;6.10;77.48;101508.84;5069442;28;20262;-85
2022/04/28 03:37:28;;;;;;;7.93;7.23;;;;;;;6.05;78.27;101499.25;5075126;28;20233;-85
2022/04/28 03:39:54;;;;;;;7.47;6.77;;;;;;;5.80;77.67;101497.94;5074673;28;20236;-84
2022/04/28 03:42:21;;;;;;;9.97;7.23;;;;;;;5.83;78.92;101475.53;5075447;28;20209;-83
2022/04/28 03:44:48;;;;;;;7.87;7.00;;;;;;;5.92;78.07;101474.81;5074886;28;20211;-85
2022/04/28 03:47:14;;;;;;;9.00;6.97;;;;;;;5.99;78.62;101483.63;5075157;28;20207;-86
2022/04/28 03:49:42;;;;;;;7.83;7.13;;;;;;;6.01;77.86;101487.09;5075429;28;20255;-84
2022/04/28 03:52:10;;;;;;;8.13;6.97;;;;;;;6.04;77.96;101502.69;5068039;28;20204;-85
2022/04/28 03:54:37;;;;;;;10.90;6.90;;;;;;;6.02;78.02;101502.66;5071792;28;20255;-83
2022/04/28 03:57:03;;;;;;;8.70;6.70;;;;;;;6.04;77.95;101503.56;5069926;28;20223;-86
2022/04/28 03:59:30;;;;;;;7.50;6.80;;;;;;;5.93;78.17;101502.47;5075032;28;20274;-84
2022/04/28 04:01:56;;;;;;;8.03;7.10;;;;;;;5.87;78.40;101495.47;5074914;28;20213;-85
2022/04/28 04:04:23;;;;;;;11.23;7.67;;;;;;;5.92;78.09;101501.59;5075963;28;20736;-84
2022/04/28 04:06:49;;;;;;;9.97;7.47;;;;;;;5.96;77.46;101503.41;5076069;28;20336;-84
2022/04/28 04:09:17;;;;;;;8.50;7.43;;;;;;;5.96;77.72;101511.19;5072866;28;20233;-84
2022/04/28 04:11:43;;;;;;;8.50;7.33;;;;;;;5.99;78.02;101512.13;5067448;28;20237;-85
2022/04/28 04:14:11;;;;;;;10.27;8.40;;;;;;;5.97;78.62;101510.38;5076385;28;20275;-84
2022/04/28 04:16:37;;;;;;;10.63;7.57;;;;;;;5.87;78.70;101503.25;5076034;28;20295;-83
2022/04/28 04:19:04;;;;;;;9.07;8.17;;;;;;;5.65;78.87;101499.41;5078683;28;20242;-85
2022/04/28 04:21:30;;;;;;;7.77;7.00;;;;;;;5.49;79.59;101476.63;5079559;28;20206;-85
2022/04/28 04:23:57;;;;;;;9.50;8.40;;;;;;;5.44;79.64;101465.34;5078857;28;20201;-85
2022/04/28 04:26:25;;;;;;;9.67;7.93;;;;;;;5.51;80.08;101459.41;5079913;28;20265;-85
2022/04/28 04:28:51;;;;;;;11.07;8.33;;;;;;;5.44;79.81;101467.91;5078794;28;20228;-83
2022/04/28 04:34:13;;;;;;;8.60;7.80;;;;;;;5.23;80.92;101456.28;5019282;28;20239;-86
2022/04/28 04:36:39;;;;;;;15.37;8.80;;;;;;;5.13;81.37;101431.09;5080763;28;20185;-82
2022/04/28 04:39:05;;;;;;;8.63;7.80;;;;;;;5.10;81.35;101426.72;5091937;28;20250;-84
2022/04/28 04:41:33;;;;;;;9.97;8.57;;;;;;;5.17;81.66;101426.03;5092835;28;20185;-83
2022/04/28 04:43:59;;;;;;;13.90;7.77;;;;;;;5.16;81.30;101434.63;5086730;28;20205;-80
2022/04/28 04:46:26;;;;;;;9.33;7.90;;;;;;;5.14;81.44;101432.84;5076472;28;20255;-82
2022/04/28 04:48:52;;;;;;;10.33;8.70;;;;;;;5.05;81.58;101437.84;5075455;28;20221;-81
2022/04/28 04:51:18;;;;;;;9.30;8.47;;;;;;;4.95;81.86;101440.22;5075948;28;20209;-83
2022/04/28 04:53:45;;;;;;;13.13;9.33;;;;;;;4.98;81.77;101442.03;5075818;28;20254;-83
2022/04/28 04:56:11;;;;;;;14.50;8.53;;;;;;;4.98;81.73;101442.03;5075678;28;20204;-83
2022/04/28 04:58:39;;;;;;;17.20;9.30;;;;;;;4.98;82.00;101436.84;5075243;28;20228;-83
2022/04/28 05:01:06;;;;;;;9.07;7.87;;;;;;;5.12;81.46;101450.06;5075963;28;20592;-84
2022/04/28 05:03:32;;;;;;;10.60;8.17;;;;;;;5.31;80.81;101461.63;5076455;28;20211;-82
2022/04/28 05:05:58;;;;;;;10.63;7.97;;;;;;;5.33;80.85;101486.72;5076586;28;20204;-82
2022/04/28 05:08:25;;;;;;;8.53;7.63;;;;;;;5.38;80.53;101479.03;5075888;28;20225;-84
2022/04/28 05:10:52;;;;;;;8.73;7.60;;;;;;;5.42;80.56;101498.97;5067672;28;20200;-84
2022/04/28 05:13:18;;;;;;;12.17;8.07;;;;;;;5.40;80.64;101505.81;5076802;28;20260;-81
2022/04/28 05:15:47;;;;;;;8.77;7.83;;;;;;;5.38;80.54;101499.75;5075987;28;20252;-80
2022/04/28 05:18:13;;;;;;;8.70;7.80;;;;;;;5.41;80.77;101504.09;5076324;28;20635;-81
2022/04/28 05:20:40;;;;;;;12.57;8.20;;;;;;;5.51;80.18;101506.00;5075813;28;20207;-82
2022/04/28 05:23:06;;;;;;;8.03;7.20;;;;;;;5.51;80.65;101511.19;5076207;28;20564;-83
2022/04/28 05:25:33;;;;;;;11.77;7.37;;;;;;;5.50;79.45;101515.50;5076814;28;20270;-83
2022/04/28 05:28:00;;;;;;;12.93;7.90;;;;;;;5.42;79.77;101527.44;5075851;28;20225;-82
2022/04/28 05:30:26;;;;;;;8.40;7.07;;;;;;;5.54;80.31;101519.91;5075786;28;20752;-85
2022/04/28 05:32:54;;;;;;;10.27;6.93;;;;;;;5.64;78.56;101546.84;5076043;28;20209;-85
2022/04/28 05:35:20;;;;;;;9.73;7.87;;;;;;;5.78;79.14;101563.53;5068274;28;20217;-80
2022/04/28 05:37:47;;;;;;;9.13;6.93;;;;;;;5.81;78.29;101582.56;5055930;28;20231;-82
2022/04/28 05:40:15;;;;;;;9.80;7.40;;;;;;;5.89;78.31;101596.56;5056401;28;20722;-83
2022/04/28 05:45:46;;;;;;;15.73;8.23;;;;;;;5.92;77.24;101625.09;5056801;28;20691;-80
2022/04/28 05:48:15;;;;;;;8.90;7.17;;;;;;;5.89;78.04;101596.56;5057187;28;20290;-82
2022/04/28 05:50:42;;;;;;;8.87;7.60;;;;;;;5.99;78.23;101606.28;5055796;28;20206;-86
2022/04/28 05:53:09;;;;;;;10.10;8.03;;;;;;;6.01;78.34;101607.19;5067394;28;20671;-85
2022/04/28 05:55:35;;;;;;;10.87;7.83;;;;;;;6.06;78.27;101596.91;5068179;28;20675;-83
2022/04/28 05:58:02;;;;;;;10.03;8.03;;;;;;;6.17;77.96;101610.94;5076087;28;20921;-84
2022/04/28 06:00:29;;;;;;;9.60;7.80;;;;;;;6.33;77.22;101631.09;5076215;28;20233;-85
2022/04/28 06:02:56;;;;;;;9.30;8.07;;;;;;;6.16;77.42;101646.38;5076870;28;20280;-85
2022/04/28 06:05:24;;;;;;;8.50;7.67;;;;;;;6.35;77.42;101642.38;5076540;28;20212;-84
2022/04/28 06:07:51;;;;;;;8.10;7.30;;;;;;;6.35;77.78;101629.41;5076277;28;20777;-82
2022/04/28 06:10:18;;;;;;;18.83;8.57;;;;;;;6.45;78.10;101625.25;5076327;28;20209;-84
2022/04/28 06:12:44;;;;;;;9.80;8.50;;;;;;;6.47;78.13;101625.28;5076624;28;20686;-83
2022/04/28 06:15:13;;;;;;;9.80;8.50;;;;;;;6.56;77.92;101625.41;5078251;28;20250;-83
2022/04/28 06:17:40;;;;;;;10.30;8.27;;;;;;;6.60;77.68;101629.84;5077891;28;20240;-85
2022/04/28 06:20:07;;;;;;;8.77;7.93;;;;;;;6.69;77.31;101639.47;5077222;28;20212;-84
2022/04/28 06:22:35;;;;;;;9.30;8.40;;;;;;;6.60;78.06;101626.34;5078097;28;20277;-85
2022/04/28 06:25:01;;;;;;;9.80;8.13;;;;;;;6.74;78.15;101630.94;5069119;28;20203;-84
2022/04/28 06:27:29;;;;;;;8.80;8.00;;;;;;;6.70;77.30;101646.41;5078329;28;20628;-85
2022/04/28 06:29:55;;;;;;;8.50;7.70;;;;;;;6.82;78.07;101635.34;5077956;28;20243;-84
2022/04/28 06:32:21;;;;;;;8.97;8.13;;;;;;;6.79;79.11;101633.59;5078994;28;20200;-84
2022/04/28 06:34:48;;;;;;;10.80;8.87;;;;;;;6.73;77.70;101647.31;5078982;28;20215;-84
2022/04/28 06:37:15;;;;;;;15.23;8.83;;;;;;;6.89;77.83;101656.22;5073599;28;20683;-80
2022/04/28 06:39:43;;;;;;;15.13;8.53;;;;;;;6.96;76.65;101671.06;5071332;28;20290;-80
2022/04/28 06:42:10;;;;;;;12.00;8.70;;;;;;;7.06;76.66;101681.59;5073179;28;20205;-82
2022/04/28 06:44:36;;;;;;;11.77;8.50;;;;;;;7.03;75.38;101725.69;5073333;28;20258;-81
2022/04/28 06:47:03;;;;;;;13.63;9.23;;;;;;;7.00;75.47;101729.09;5073205;28;20555;-81
2022/04/28 06:49:29;;;;;;;16.07;8.97;;;;;;;6.99;75.00;101737.72;5072760;28;20227;-81
2022/04/28 06:51:56;;;;;;;14.03;9.53;;;;;;;7.07;75.22;101730.94;5072859;28;20744;-83
2022/04/28 06:54:22;;;;;;;10.67;9.10;;;;;;;7.19;75.19;101738.06;5064428;28;20254;-82
2022/04/28 06:56:50;;;;;;;11.07;9.63;;;;;;;7.26;74.23;101765.88;5072979;28;20204;-81
2022/04/28 06:59:16;;;;;;;10.90;8.70;;;;;;;7.47;73.88;101770.53;5073767;28;20288;-80
2022/04/28 07:01:43;;;;;;;10.13;8.70;;;;;;;7.66;73.25;101789.00;5073693;28;20212;-82
2022/04/28 07:04:09;;;;;;;9.50;7.93;;;;;;;7.80;72.73;101815.19;5070389;28;20210;-83
2022/04/28 07:06:36;;;;;;;9.73;7.83;;;;;;;7.76;71.42;101846.31;5069983;28;20208;-82
2022/04/28 07:09:02;;;;;;;9.30;8.40;;;;;;;7.91;71.43;101852.63;5068684;28;20605;-82
2022/04/28 07:11:29;;;;;;;16.00;8.73;;;;;;;8.04;71.30;101866.69;5075121;28;20211;-82
2022/04/28 07:13:57;;;;;;;11.60;8.10;;;;;;;8.11;70.28;101895.41;5068990;28;20277;-81
2022/04/28 07:16:23;;;;;;;12.57;7.90;;;;;;;8.22;69.30;101908.53;5064499;28;20234;-81
2022/04/28 07:18:49;;;;;;;13.83;6.73;;;;;;;8.36;68.51;101947.75;5063059;28;20255;-81
2022/04/28 07:21:16;;;;;;;9.93;7.33;;;;;;;8.40;67.12;102006.81;5063407;28;20288;-81
2022/04/28 07:23:42;;;;;;;8.17;7.03;;;;;;;8.43;66.45;102014.69;5065327;28;20204;-83
2022/04/28 07:26:09;;;;;;;16.17;9.67;;;;;;;8.40;67.45;102032.81;5075242;28;20192;-83
2022/04/28 07:28:35;;;;;;;8.80;6.10;;;;;;;8.45;66.82;102023.41;5073384;28;20242;-82
2022/04/28 07:31:03;;;;;;;9.17;5.80;;;;;;;8.54;66.38;102043.47;5073341;28;20228;-83
2022/04/28 07:33:30;;;;;;;13.50;6.60;;;;;;;8.61;65.80;102054.88;5072976;28;20252;-82
2022/04/28 07:35:56;;;;;;;8.43;7.70;;;;;;;8.66;67.23;102041.09;5076063;28;20203;-80
2022/04/28 07:38:22;;;;;;;9.83;8.10;;;;;;;8.60;64.81;102056.59;5076400;28;20772;-84
2022/04/28 07:40:51;;;;;;;9.47;7.13;;;;;;;8.72;65.73;102076.72;5069866;28;20199;-83
2022/04/28 07:43:18;;;;;;;9.10;7.43;;;;;;;8.78;65.31;102065.53;5075921;28;20674;-84
2022/04/28 07:45:44;;;;;;;12.07;8.77;;;;;;;8.84;65.53;102061.31;5074945;28;20201;-83
2022/04/28 07:48:12;;;;;;;16.80;8.13;;;;;;;8.78;65.86;102071.63;5075945;28;20219;-83
2022/04/28 07:50:38;;;;;;;8.63;7.13;;;;;;;8.86;66.61;102041.38;5074966;28;20265;-83
2022/04/28 07:53:05;;;;;;;8.57;7.77;;;;;;;8.96;66.15;102037.16;5076498;28;20212;-82
2022/04/28 07:55:31;;;;;;;16.40;7.97;;;;;;;9.04;65.93;102055.47;5073781;28;20227;-81
2022/04/28 07:57:58;;;;;;;9.70;7.00;;;;;;;9.03;65.33;102070.22;5070621;28;20235;-84
2022/04/28 08:00:25;;;;;;;10.57;7.97;;;;;;;9.05;65.42;102067.66;5064452;28;20325;-84
2022/04/28 08:02:51;;;;;;;8.03;7.33;;;;;;;9.12;66.76;102040.84;5061010;28;20677;-83
2022/04/28 08:05:19;;;;;;;10.73;8.20;;;;;;;9.20;64.60;102077.44;5058896;28;20802;-84
2022/04/28 08:07:45;;;;;;;15.90;6.73;;;;;;;9.23;64.14;102103.50;5060373;28;20226;-85
2022/04/28 08:10:12;;;;;;;8.80;5.43;;;;;;;9.38;64.29;102114.13;5059685;28;20207;-83
2022/04/28 08:12:39;;;;;;;10.10;6.30;;;;;;;9.45;62.53;102146.34;5060831;28;20746;-82
2022/04/28 08:15:07;;;;;;;10.77;6.67;;;;;;;9.45;63.44;102151.56;5061081;28;20261;-82
2022/04/28 08:17:34;;;;;;;11.77;8.60;;;;;;;9.41;63.50;102145.44;5061482;28;20750;-84
2022/04/28 08:20:00;;;;;;;11.30;7.50;;;;;;;9.53;63.75;102140.41;5091899;22;20240;-82
2022/04/28 08:22:28;;;;;;;10.33;7.70;;;;;;;9.55;62.96;102145.63;5069956;28;20210;-80
2022/04/28 08:24:55;;;;;;;17.40;7.47;;;;;;;9.48;64.04;102147.28;5075845;28;20225;-79
2022/04/28 08:27:25;;;;;;;9.90;8.23;;;;;;;9.56;64.57;102116.09;5060639;28;20205;-81
2022/04/28 08:29:51;;;;;;;14.30;7.33;;;;;;;9.65;63.87;102129.25;5075468;28;20263;-80
2022/04/28 08:32:17;;;;;;;9.30;7.03;;;;;;;9.76;63.51;102142.41;5080523;28;20632;-79
2022/04/28 08:34:44;;;;;;;10.00;7.70;;;;;;;9.80;63.72;102152.00;5080680;28;20212;-80
2022/04/28 08:37:10;;;;;;;8.77;7.97;;;;;;;9.88;63.33;102144.28;5080245;28;20203;-80
2022/04/28 08:39:38;;;;;;;11.07;8.10;;;;;;;9.74;62.50;102178.88;5079088;28;20239;-80
2022/04/28 08:42:05;;;;;;;12.33;8.13;;;;;;;9.70;62.48;102171.03;5079450;28;20745;-80
2022/04/28 08:44:32;;;;;;;11.90;8.70;;;;;;;9.56;63.64;102162.16;5080050;28;20211;-79
2022/04/28 08:47:00;;;;;;;11.43;7.87;;;;;;;9.60;64.30;102146.56;5079830;28;20281;-81
2022/04/28 08:49:28;;;;;;;9.27;8.07;;;;;;;9.65;63.42;102150.13;5079038;28;20223;-80
2022/04/28 08:51:56;;;;;;;9.00;7.13;;;;;;;9.89;63.94;102151.25;5080727;28;20209;-81
2022/04/28 08:54:26;;;;;;;10.43;7.43;;;;;;;9.89;62.71;102177.31;5090526;28;20628;-81
2022/04/28 08:56:55;;;;;;;8.17;7.27;;;;;;;9.97;62.86;102180.91;5099505;28;20207;-83
2022/04/28 08:59:23;;;;;;;9.23;8.33;;;;;;;10.10;63.74;102164.53;5098261;28;20230;-79
2022/04/28 09:01:51;;;;;;;11.23;8.00;;;;;;;10.20;61.93;102196.81;5099051;28;20211;-81
2022/04/28 09:04:18;;;;;;;8.70;7.70;;;;;;;10.28;62.26;102205.59;5097797;28;20215;-81
2022/04/28 09:06:46;;;;;;;9.47;8.57;;;;;;;10.38;62.52;102206.59;5098897;28;20215;-81
2022/04/28 09:09:15;;;;;;;11.63;8.57;;;;;;;10.45;62.22;102202.34;5098844;28;20227;-79
2022/04/28 09:11:42;;;;;;;13.07;8.43;;;;;;;10.51;62.24;102205.00;5096795;28;20206;-78
2022/04/28 09:14:12;;;;;;;11.07;8.77;;;;;;;10.34;61.50;102228.31;5098350;28;20623;-80
2022/04/28 09:16:41;;;;;;;12.40;9.40;;;;;;;10.25;62.24;102238.66;5097037;28;20219;-80
2022/04/28 09:19:08;;;;;;;10.40;9.30;;;;;;;10.29;61.77;102232.59;5095918;28;20321;-78
2022/04/28 09:21:35;;;;;;;9.93;8.97;;;;;;;10.39;61.88;102229.25;5094581;28;20211;-78
2022/04/28 09:24:03;;;;;;;11.57;9.07;;;;;;;10.52;61.96;102222.41;5088503;28;20208;-79
2022/04/28 09:26:31;;;;;;;11.13;9.40;;;;;;;10.51;61.27;102231.13;5091701;28;20295;-77
2022/04/28 09:29:02;;;;;;;11.47;10.27;;;;;;;10.55;60.56;102248.56;5093453;28;20250;-79
2022/04/28 09:31:30;;;;;;;12.13;9.77;;;;;;;10.42;59.66;102273.66;5094703;28;20257;-79
2022/04/28 09:34:04;;;;;;;10.83;9.73;;;;;;;10.31;60.20;102281.38;5094583;28;20205;-80
2022/04/28 09:36:31;;;;;;;12.80;9.33;;;;;;;10.38;60.32;102271.88;5095942;28;20619;-78
2022/04/28 09:38:57;;;;;;;11.17;10.03;;;;;;;10.27;59.06;102299.56;5094230;28;20232;-78
2022/04/28 09:44:11;;;;;;;13.33;9.17;;;;;;;10.78;61.65;102221.78;5095632;28;20300;-79
2022/04/28 09:46:42;;;;;;;12.30;10.03;;;;;;;10.97;60.86;102235.91;5095181;28;20505;-79
2022/04/28 09:49:10;;;;;;;10.50;9.17;;;;;;;11.01;60.82;102250.75;5094546;28;20317;-78
2022/04/28 09:51:38;;;;;;;13.93;9.63;;;;;;;11.09;61.07;102247.31;5095386;28;20206;-78
2022/04/28 09:54:08;;;;;;;9.47;8.63;;;;;;;11.30;60.52;102240.53;5089581;28;20295;-80
2022/04/28 09:56:35;;;;;;;11.83;9.90;;;;;;;11.43;60.57;102239.72;5093065;28;20202;-79
2022/04/28 09:59:04;;;;;;;14.03;9.50;;;;;;;11.44;59.50;102267.63;5094907;28;20227;-79
2022/04/28 10:01:31;;;;;;;10.47;9.27;;;;;;;11.50;59.71;102266.81;5086355;28;20198;-79
2022/04/28 10:03:59;;;;;;;10.70;9.70;;;;;;;11.54;58.73;102276.41;5085178;28;20195;-78
2022/04/28 10:06:26;;;;;;;10.43;9.50;;;;;;;11.41;57.69;102314.66;5089522;28;20202;-80
2022/04/28 10:08:53;;;;;;;14.50;9.30;;;;;;;11.46;58.75;102312.09;5094950;28;20227;-80
2022/04/28 10:11:22;;;;;;;10.80;9.57;;;;;;;11.46;58.70;102320.81;5096121;28;20206;-80
2022/04/28 10:13:51;;;;;;;10.77;9.70;;;;;;;11.62;59.67;102300.88;5096188;28;20214;-80
2022/04/28 10:16:20;;;;;;;13.37;10.23;;;;;;;11.83;58.36;102287.06;5096434;28;20665;-80
2022/04/28 10:18:50;;;;;;;11.97;10.07;;;;;;;11.87;57.13;102338.53;5095078;28;20234;-78
2022/04/28 10:21:21;;;;;;;10.00;8.93;;;;;;;11.99;57.55;102349.97;5096587;28;20229;-80
2022/04/28 10:32:33;;;;;;;10.87;8.87;;;;;;;12.02;58.36;102322.06;5039907;28;20282;-78
2022/04/28 10:35:06;;;;;;;10.50;9.50;;;;;;;12.05;57.39;102329.06;5075715;28;20218;-80
2022/04/28 10:37:35;;;;;;;11.27;10.23;;;;;;;12.20;57.01;102310.81;5075770;28;20205;-78
2022/04/28 10:40:02;;;;;;;11.70;10.70;;;;;;;12.34;56.52;102365.00;5073263;28;20479;-80
2022/04/28 10:42:57;;;;;;;12.07;8.93;;;;;;;12.18;56.29;102412.03;5054712;28;20501;-79
2022/04/28 10:45:24;;;;;;;10.13;9.17;;;;;;;12.37;56.72;102373.75;5054672;28;20212;-78
2022/04/28 10:48:16;;;;;;;10.73;9.00;;;;;;;12.40;54.81;102391.22;5054801;28;20213;-79
2022/04/28 10:50:59;;;;;;;10.13;9.10;;;;;;;12.33;54.78;102455.78;5054666;28;20292;-80
2022/04/28 10:53:27;;;;;;;8.83;8.13;;;;;;;12.54;56.09;102417.47;5067714;28;20205;-79
2022/04/28 10:55:53;;;;;;;10.07;8.70;;;;;;;12.76;55.00;102426.31;5068209;28;20199;-79
2022/04/28 10:58:21;;;;;;;10.77;7.93;;;;;;;13.02;54.48;102427.28;5075447;28;20671;-79
2022/04/28 11:00:53;;;;;;;9.17;8.37;;;;;;;13.00;55.58;102473.59;5074652;28;20260;-79
2022/04/28 11:03:47;;;;;;;8.70;7.90;;;;;;;13.22;55.74;102431.69;4904634;28;10001132;-79
2022/04/28 11:06:14;;;;;;;9.57;7.60;;;;;;;13.45;54.28;102429.16;5052525;28;20408;-80
2022/04/28 11:08:47;;;;;;;8.43;7.67;;;;;;;13.47;53.58;102448.38;5051117;28;20320;-80
2022/04/28 11:11:14;;;;;;;8.73;7.80;;;;;;;13.00;52.61;102510.31;5052033;28;20311;-80
2022/04/28 11:13:46;;;;;;;8.03;7.33;;;;;;;13.01;54.67;102485.81;5052650;28;20210;-80
2022/04/28 11:16:13;;;;;;;9.93;8.10;;;;;;;13.17;55.54;102443.94;5051009;28;20205;-80
2022/04/28 11:18:42;;;;;;;9.57;7.93;;;;;;;13.41;54.92;102436.13;5051055;28;20234;-80
2022/04/28 11:21:09;;;;;;;8.47;7.20;;;;;;;13.86;53.81;102436.16;5051812;28;20235;-80
2022/04/28 11:23:40;;;;;;;8.60;7.80;;;;;;;14.32;54.57;102443.97;5065144;28;20211;-79
2022/04/28 11:26:09;;;;;;;9.63;8.70;;;;;;;14.63;51.53;102522.78;5068698;28;20201;-80
2022/04/28 11:28:36;;;;;;;9.50;8.07;;;;;;;15.04;51.91;102529.66;5076644;28;20230;-81
2022/04/28 11:31:08;;;;;;;9.20;8.30;;;;;;;15.62;48.92;102591.69;5070540;28;20261;-80
2022/04/28 11:33:35;;;;;;;9.63;8.73;;;;;;;16.28;46.30;102717.75;5076472;28;20565;-79
2022/04/28 11:36:02;;;;;;;10.53;7.90;;;;;;;18.10;44.27;102795.34;5077546;28;20262;-81
2022/04/28 11:38:31;;;;;;;10.43;8.43;;;;;;;18.10;41.42;102938.94;5077053;28;20236;-80
2022/04/28 11:41:03;;;;;;;8.63;8.03;;;;;;;18.44;42.57;102926.19;5075539;28;20673;-80
2022/04/28 11:43:32;;;;;;;9.27;8.37;;;;;;;18.30;40.95;102978.38;5077426;28;20220;-81
2022/04/28 11:45:59;;;;;;;8.07;7.37;;;;;;;20.01;40.22;102976.88;5076980;28;20215;-81
2022/04/28 11:48:28;;;;;;;11.10;8.37;;;;;;;21.63;36.67;103069.22;5077571;28;20232;-82
2022/04/28 11:50:54;;;;;;;8.67;7.87;;;;;;;22.55;33.42;103173.41;5077069;28;20201;-82
2022/04/28 11:53:21;;;;;;;8.17;7.27;;;;;;;21.42;35.18;103191.00;5077463;28;20197;-81
2022/04/28 11:55:50;;;;;;;8.17;7.57;;;;;;;22.48;34.25;103179.81;5076935;28;20263;-81
2022/04/28 11:58:17;;;;;;;9.00;8.30;;;;;;;21.37;33.95;103231.88;5076733;28;20225;-81